Aviation Digital Data Service (ADDS)

Output produced by METARs form (0009 UTC 26 June 2019)
found at http://aviationweather.gov/metar/data/
 
KARA 252353Z 02004KT 10SM CLR 28/23 A3007 RMK AO2 SLP183 T02780228 10311 20272 53004
KARA 252332Z 2600/2624 VRB06KT P6SM SCT020 BKN120 
     TEMPO 2601/2604 VRB15G25KT 3SM SHRA BKN020 
     FM260400 29011KT P6SM VCTS SCT050CB BKN120 
     FM261300 VRB06KT P6SM VCSH SCT025 BKN050